Takapuna, New Zealand
Current Conditions -  °F | °C
As of 12:00 AM on Friday 24 Oct 2014 (Local Time) from NZAA Reporting Station
Overcast Overcast  
Wind Chill: 57°   Ceiling: 4200
Heat Index: 57°   Visibility: 6mi
Dew Point: 52°   Wind: 12mph
Humidity: 82%   Direction: 260°W
Pressure: 29.97"   Gusts: NA
Location:  36.79°S, 174.77°E
Report Text: NZAA 231200Z AUTO 26010KT 9999 OVC042/// 14/11 Q1015 NOSIG
Loading
Personal Weather Stations






























Interactive Weather Map
Tropical Storm Tracking
New forecast layout! Learn more

10-Day Weather Forecast

Advertisements
Track Severe Weather on mobile